ADDS METAR Data

Data at: 0747 UTC 24 Oct 2017

METAR for:KMTP (Montauk Arpt, NY, US)
Text:KMTP 240654Z AUTO 16009G18KT 19/18 A3006 RMK AO1 SLP178 P0003 T01890183
Temperature: 18.9°C ( 66°F)
Dewpoint: 18.3°C ( 65°F) [RH = 96%]
Pressure (altimeter):30.06 inches Hg (1018.0 mb) [Sea level pressure: 1017.8 mb]
Winds:from the SSE (160 degrees) at 10 MPH (9 knots; 4.6 m/s) gusting to 21 MPH (18 knots; 9.3 m/s)
QC Flag:automated observation with no human augmentation